Time;durP1;ratioP1;P1;durP2;ratioP2;P2;SDS_P1;SDS_P2;PMS_P1;PMS_P2;Temp;Humidity;BMP_temperature;BMP_pressure;BME280_temperature;BME280_humidity;BME280_pressure;Samples;Min_cycle;Max_cycle;Signal;HPM_P1;HPM_P2
2022/10/06 00:10:19;;;;;;;0.20;0.20;;;;;;;;;;6292878;22;20020;-95
2022/10/06 00:12:51;;;;;;;0.20;0.20;;;;;;;;;;6245772;23;20016;-95
2022/10/06 00:15:31;;;;;;;0.20;0.20;;;;;;;;;;6247261;22;20020;-95
2022/10/06 00:18:14;;;;;;;0.10;0.10;;;;;;;;;;6269276;22;20015;-96
2022/10/06 00:20:44;;;;;;;0.10;0.10;;;;;;;;;;6271295;23;20027;-95
2022/10/06 00:23:15;;;;;;;0.20;0.20;;;;;;;;;;6246717;23;20008;-96
2022/10/06 00:51:49;;;;;;;0.20;0.20;;;;;;;;;;6266175;22;20019;-96
2022/10/06 00:54:16;;;;;;;0.20;0.20;;;;;;;;;;6243811;23;20035;-95
2022/10/06 00:56:42;;;;;;;0.10;0.10;;;;;;;;;;6245675;23;20020;-95
2022/10/06 00:59:14;;;;;;;0.20;0.20;;;;;;;;;;6241442;23;20027;-96
2022/10/06 01:01:48;;;;;;;0.20;0.20;;;;;;;;;;6245696;22;20051;-95
2022/10/06 01:04:42;;;;;;;0.10;0.10;;;;;;;;;;6270141;22;20350;-94
2022/10/06 01:07:15;;;;;;;0.20;0.20;;;;;;;;;;6269691;22;20020;-95
2022/10/06 01:09:45;;;;;;;0.20;0.20;;;;;;;;;;6271217;22;20011;-95
2022/10/06 01:12:15;;;;;;;0.15;0.15;;;;;;;;;;6245469;23;20019;-94
2022/10/06 01:14:43;;;;;;;0.10;0.10;;;;;;;;;;6245526;23;20020;-96
2022/10/06 01:17:29;;;;;;;0.10;0.10;;;;;;;;;;6246970;23;20004;-94
2022/10/06 01:20:16;;;;;;;0.20;0.20;;;;;;;;;;6266724;23;20020;-96
2022/10/06 01:23:01;;;;;;;0.10;0.10;;;;;;;;;;6245350;23;20034;-95
2022/10/06 01:25:30;;;;;;;0.20;0.20;;;;;;;;;;6247305;23;20009;-95
2022/10/06 01:28:11;;;;;;;0.15;0.15;;;;;;;;;;6273860;22;20004;-94
2022/10/06 01:36:07;;;;;;;0.20;0.20;;;;;;;;;;6260383;22;20008;-95
2022/10/06 01:38:46;;;;;;;0.13;0.13;;;;;;;;;;6272132;23;20042;-93
2022/10/06 01:41:40;;;;;;;0.40;0.40;;;;;;;;;;6273288;22;20027;-94
2022/10/06 01:44:10;;;;;;;0.10;0.10;;;;;;;;;;6222530;23;20047;-95
2022/10/06 01:46:37;;;;;;;0.15;0.15;;;;;;;;;;6245416;23;20016;-95
2022/10/06 02:20:21;;;;;;;0.20;0.20;;;;;;;;;;6250316;22;20047;-94
2022/10/06 02:22:50;;;;;;;0.30;0.30;;;;;;;;;;6279043;22;20094;-96
2022/10/06 02:25:23;;;;;;;0.30;0.30;;;;;;;;;;6228129;22;20056;-96
2022/10/06 02:28:08;;;;;;;0.30;0.30;;;;;;;;;;6254015;22;20090;-94
2022/10/06 02:30:35;;;;;;;0.20;0.20;;;;;;;;;;6277285;22;20008;-95
2022/10/06 02:48:38;;;;;;;0.30;0.30;;;;;;;;;;6265077;22;20059;-94
2022/10/06 02:51:14;;;;;;;0.30;0.30;;;;;;;;;;6277143;22;20090;-95
2022/10/06 02:53:44;;;;;;;0.15;0.15;;;;;;;;;;6301215;22;20056;-95
2022/10/06 02:56:29;;;;;;;0.20;0.20;;;;;;;;;;6302856;22;20007;-96
2022/10/06 02:59:02;;;;;;;0.30;0.30;;;;;;;;;;6302401;22;20012;-93
2022/10/06 03:01:33;;;;;;;0.20;0.20;;;;;;;;;;6274812;22;20030;-95
2022/10/06 03:04:10;;;;;;;0.20;0.20;;;;;;;;;;6251354;22;20024;-94
2022/10/06 03:06:55;;;;;;;0.35;0.35;;;;;;;;;;6303472;22;20078;-96
2022/10/06 03:09:21;;;;;;;0.20;0.20;;;;;;;;;;6277509;22;20019;-96
2022/10/06 03:12:07;;;;;;;0.20;0.20;;;;;;;;;;6298086;22;20015;-95
2022/10/06 03:32:46;;;;;;;0.20;0.20;;;;;;;;;;6299483;22;20012;-93
2022/10/06 03:35:12;;;;;;;0.10;0.10;;;;;;;;;;6248844;22;20042;-96
2022/10/06 03:37:41;;;;;;;0.30;0.30;;;;;;;;;;6250500;22;20020;-94
2022/10/06 03:40:09;;;;;;;0.40;0.40;;;;;;;;;;6251176;22;20039;-95
2022/10/06 03:42:37;;;;;;;0.10;0.10;;;;;;;;;;6251116;22;20024;-95
2022/10/06 03:45:11;;;;;;;0.17;0.17;;;;;;;;;;6251451;22;20000;-95
2022/10/06 03:47:44;;;;;;;0.20;0.20;;;;;;;;;;6303455;22;20057;-96
2022/10/06 03:50:31;;;;;;;0.30;0.30;;;;;;;;;;6243901;22;20019;-95
2022/10/06 03:56:08;;;;;;;0.20;0.20;;;;;;;;;;6277186;22;20075;-94
2022/10/06 03:58:36;;;;;;;0.20;0.20;;;;;;;;;;6250932;22;20042;-95
2022/10/06 04:01:06;;;;;;;0.30;0.30;;;;;;;;;;6252182;22;20043;-94
2022/10/06 04:03:35;;;;;;;0.20;0.20;;;;;;;;;;6251987;22;20019;-92
2022/10/06 04:06:02;;;;;;;0.20;0.20;;;;;;;;;;6252088;22;20019;-95
2022/10/06 04:08:37;;;;;;;0.10;0.10;;;;;;;;;;6251164;22;20008;-94
2022/10/06 04:11:07;;;;;;;0.20;0.20;;;;;;;;;;6249687;22;19995;-94
2022/10/06 04:13:37;;;;;;;0.20;0.20;;;;;;;;;;6250492;22;20023;-95
2022/10/06 04:16:11;;;;;;;0.15;0.15;;;;;;;;;;6250545;22;20019;-93
2022/10/06 04:18:43;;;;;;;0.30;0.30;;;;;;;;;;6302624;22;20051;-93
2022/10/06 04:21:18;;;;;;;0.20;0.20;;;;;;;;;;6277893;22;20030;-95
2022/10/06 04:23:48;;;;;;;0.10;0.10;;;;;;;;;;6278643;22;20015;-93
2022/10/06 04:26:21;;;;;;;0.10;0.10;;;;;;;;;;6302861;22;20022;-95
2022/10/06 04:28:52;;;;;;;0.20;0.20;;;;;;;;;;6271055;22;20008;-92
2022/10/06 04:39:13;;;;;;;0.20;0.20;;;;;;;;;;6281993;22;20031;-93
2022/10/06 04:41:58;;;;;;;0.30;0.30;;;;;;;;;;6252199;22;20472;-95
2022/10/06 05:05:11;;;;;;;0.25;0.25;;;;;;;;;;6241491;22;20009;-94
2022/10/06 05:23:13;;;;;;;0.17;0.17;;;;;;;;;;6259356;22;20062;-91
2022/10/06 05:25:39;;;;;;;0.30;0.30;;;;;;;;;;6238307;23;20122;-94
2022/10/06 06:23:17;;;;;;;0.30;0.30;;;;;;;;;;6265675;22;20020;-93
2022/10/06 06:25:43;;;;;;;0.10;0.10;;;;;;;;;;6239230;23;20020;-91
2022/10/06 06:28:09;;;;;;;0.20;0.20;;;;;;;;;;6238731;23;20085;-93
2022/10/06 06:30:35;;;;;;;0.30;0.30;;;;;;;;;;6238677;23;20020;-94
2022/10/06 06:33:01;;;;;;;0.20;0.20;;;;;;;;;;6240581;23;20016;-93
2022/10/06 06:35:27;;;;;;;0.20;0.20;;;;;;;;;;6239450;23;20020;-93
2022/10/06 06:37:54;;;;;;;0.30;0.30;;;;;;;;;;6240636;23;20012;-92
2022/10/06 06:40:20;;;;;;;0.20;0.20;;;;;;;;;;6241601;23;20040;-94
2022/10/06 06:42:46;;;;;;;0.30;0.30;;;;;;;;;;6242721;23;20022;-95
2022/10/06 06:45:13;;;;;;;0.22;0.22;;;;;;;;;;6243108;23;20016;-94
2022/10/06 06:47:39;;;;;;;0.28;0.28;;;;;;;;;;6241435;23;20042;-93
2022/10/06 06:50:09;;;;;;;0.20;0.20;;;;;;;;;;6241614;23;20000;-93
2022/10/06 06:52:35;;;;;;;0.30;0.30;;;;;;;;;;6241671;23;20024;-93
2022/10/06 06:55:02;;;;;;;0.30;0.30;;;;;;;;;;6241314;23;20070;-94
2022/10/06 06:57:28;;;;;;;0.20;0.20;;;;;;;;;;6241474;23;20020;-93
2022/10/06 06:59:55;;;;;;;0.20;0.20;;;;;;;;;;6240948;23;20020;-93
2022/10/06 07:02:25;;;;;;;0.20;0.20;;;;;;;;;;6240785;23;20043;-93
2022/10/06 07:04:51;;;;;;;0.40;0.40;;;;;;;;;;6241292;23;20018;-94
2022/10/06 07:07:18;;;;;;;0.10;0.10;;;;;;;;;;6240280;23;20450;-91
2022/10/06 07:09:44;;;;;;;0.20;0.20;;;;;;;;;;6239837;23;20066;-92
2022/10/06 07:12:10;;;;;;;0.28;0.28;;;;;;;;;;6240172;23;20023;-93
2022/10/06 07:25:05;;;;;;;0.20;0.20;;;;;;;;;;6240370;23;20043;-92
2022/10/06 07:25:37;;;;;;;0.10;0.10;;;;;;;;;;6269826;22;20024;-92
2022/10/06 07:28:05;;;;;;;0.10;0.10;;;;;;;;;;6243813;22;20012;-95
2022/10/06 07:30:31;;;;;;;0.20;0.20;;;;;;;;;;6243646;22;20042;-94
2022/10/06 07:32:57;;;;;;;0.22;0.22;;;;;;;;;;6243862;22;20109;-92
2022/10/06 07:35:24;;;;;;;0.10;0.10;;;;;;;;;;6244989;22;20027;-91
2022/10/06 07:37:52;;;;;;;0.20;0.20;;;;;;;;;;6243736;22;20020;-93
2022/10/06 07:40:18;;;;;;;0.10;0.10;;;;;;;;;;6243534;22;20023;-93
2022/10/06 07:42:47;;;;;;;0.10;0.10;;;;;;;;;;6244966;22;20024;-95
2022/10/06 07:45:43;;;;;;;0.30;0.30;;;;;;;;;;6245612;22;20417;-93
2022/10/06 07:48:13;;;;;;;0.10;0.10;;;;;;;;;;6243672;22;20017;-92
2022/10/06 07:50:40;;;;;;;0.28;0.28;;;;;;;;;;6242926;22;20511;-93
2022/10/06 07:53:09;;;;;;;0.20;0.20;;;;;;;;;;6244131;22;20023;-92
2022/10/06 07:55:40;;;;;;;0.20;0.20;;;;;;;;;;6246503;22;20012;-93
2022/10/06 07:58:10;;;;;;;0.30;0.30;;;;;;;;;;6245180;22;20098;-94
2022/10/06 08:00:36;;;;;;;0.20;0.20;;;;;;;;;;6243325;22;20051;-93
2022/10/06 08:03:03;;;;;;;0.10;0.10;;;;;;;;;;6244041;22;20022;-92
2022/10/06 08:05:29;;;;;;;0.20;0.20;;;;;;;;;;6242957;22;20018;-92
2022/10/06 08:07:55;;;;;;;0.10;0.10;;;;;;;;;;6243917;22;20505;-92
2022/10/06 08:10:22;;;;;;;0.20;0.20;;;;;;;;;;6243396;22;20023;-92
2022/10/06 08:12:48;;;;;;;0.10;0.10;;;;;;;;;;6243785;22;20023;-92
2022/10/06 08:15:14;;;;;;;0.20;0.20;;;;;;;;;;6243202;22;20019;-91
2022/10/06 08:17:40;;;;;;;0.10;0.10;;;;;;;;;;6242875;22;20070;-91
2022/10/06 08:20:08;;;;;;;0.13;0.13;;;;;;;;;;6240563;22;20015;-91
2022/10/06 08:22:35;;;;;;;0.10;0.10;;;;;;;;;;6266676;22;20016;-92
2022/10/06 08:25:01;;;;;;;0.20;0.20;;;;;;;;;;6240393;22;20016;-92
2022/10/06 08:27:28;;;;;;;0.10;0.10;;;;;;;;;;6240888;22;20154;-91
2022/10/06 08:29:54;;;;;;;0.20;0.20;;;;;;;;;;6239724;22;20078;-91
2022/10/06 08:32:21;;;;;;;0.20;0.20;;;;;;;;;;6239241;22;20020;-91
2022/10/06 08:34:48;;;;;;;0.20;0.20;;;;;;;;;;6264200;22;20098;-91
2022/10/06 08:37:14;;;;;;;0.30;0.30;;;;;;;;;;6240406;22;20027;-91
2022/10/06 08:39:43;;;;;;;0.10;0.10;;;;;;;;;;6239750;22;20026;-91
2022/10/06 08:42:17;;;;;;;0.05;0.05;;;;;;;;;;6240687;22;20015;-92
2022/10/06 08:44:55;;;;;;;0.20;0.20;;;;;;;;;;6239776;22;20016;-92
2022/10/06 08:47:22;;;;;;;0.10;0.10;;;;;;;;;;6240599;22;20043;-91
2022/10/06 08:49:49;;;;;;;0.20;0.20;;;;;;;;;;6239325;22;20022;-91
2022/10/06 08:52:15;;;;;;;0.13;0.13;;;;;;;;;;6241102;22;20053;-91
2022/10/06 08:54:47;;;;;;;0.10;0.10;;;;;;;;;;6240219;22;20015;-92
2022/10/06 08:57:16;;;;;;;0.20;0.20;;;;;;;;;;6240619;22;20019;-92
2022/10/06 08:59:46;;;;;;;0.20;0.20;;;;;;;;;;6250508;22;20024;-91
2022/10/06 09:02:19;;;;;;;0.20;0.20;;;;;;;;;;6241138;22;20024;-90
2022/10/06 09:04:48;;;;;;;0.20;0.20;;;;;;;;;;6241131;22;20099;-92
2022/10/06 09:07:24;;;;;;;0.13;0.13;;;;;;;;;;6241377;22;20015;-92
2022/10/06 09:10:02;;;;;;;0.10;0.10;;;;;;;;;;6240610;22;20039;-92
2022/10/06 09:12:31;;;;;;;0.10;0.10;;;;;;;;;;6241149;22;20425;-92
2022/10/06 09:15:18;;;;;;;0.20;0.20;;;;;;;;;;6241159;22;20033;-92
2022/10/06 09:17:49;;;;;;;0.20;0.20;;;;;;;;;;6242168;22;20015;-93
2022/10/06 09:20:21;;;;;;;0.10;0.10;;;;;;;;;;6241572;22;20019;-93
2022/10/06 09:22:49;;;;;;;0.20;0.20;;;;;;;;;;6266303;22;20027;-90
2022/10/06 09:25:17;;;;;;;0.10;0.10;;;;;;;;;;6241587;22;20023;-93
2022/10/06 09:27:44;;;;;;;0.10;0.10;;;;;;;;;;6241241;22;20023;-92
2022/10/06 09:30:12;;;;;;;0.10;0.10;;;;;;;;;;6240543;22;20015;-92
2022/10/06 09:32:39;;;;;;;0.20;0.20;;;;;;;;;;6241428;22;20019;-91
2022/10/06 09:35:17;;;;;;;0.10;0.10;;;;;;;;;;6265935;22;20011;-90
2022/10/06 09:37:55;;;;;;;0.10;0.10;;;;;;;;;;6239444;22;20071;-91
2022/10/06 09:40:44;;;;;;;0.20;0.20;;;;;;;;;;6238461;22;20016;-91
2022/10/06 09:43:24;;;;;;;0.10;0.10;;;;;;;;;;6238355;22;20046;-91
2022/10/06 09:45:50;;;;;;;0.10;0.10;;;;;;;;;;6239983;22;20016;-90
2022/10/06 09:48:22;;;;;;;0.10;0.10;;;;;;;;;;6242208;22;20016;-90
2022/10/06 09:51:08;;;;;;;0.20;0.20;;;;;;;;;;6242237;22;20086;-91
2022/10/06 09:53:34;;;;;;;0.13;0.13;;;;;;;;;;6241425;22;20071;-90
2022/10/06 09:56:03;;;;;;;0.10;0.10;;;;;;;;;;6240745;22;20024;-90
2022/10/06 09:58:33;;;;;;;0.15;0.15;;;;;;;;;;6241207;22;20027;-93
2022/10/06 10:01:07;;;;;;;0.10;0.10;;;;;;;;;;6240554;22;20026;-91
2022/10/06 10:03:53;;;;;;;0.10;0.10;;;;;;;;;;6241997;22;20022;-90
2022/10/06 10:06:25;;;;;;;0.10;0.10;;;;;;;;;;6242226;22;20012;-91
2022/10/06 10:08:51;;;;;;;0.10;0.10;;;;;;;;;;6240803;22;20098;-90
2022/10/06 10:14:17;;;;;;;0.10;0.10;;;;;;;;;;6267889;22;20046;-90
2022/10/06 10:16:53;;;;;;;0.10;0.10;;;;;;;;;;6241731;22;20011;-91
2022/10/06 10:19:36;;;;;;;0.10;0.10;;;;;;;;;;6241014;22;20021;-92
2022/10/06 10:22:03;;;;;;;0.10;0.10;;;;;;;;;;6241657;22;20094;-90
2022/10/06 10:24:47;;;;;;;0.40;0.40;;;;;;;;;;6240685;22;20037;-91
2022/10/06 10:27:35;;;;;;;0.10;0.10;;;;;;;;;;6240950;22;20022;-89
2022/10/06 10:30:06;;;;;;;0.10;0.10;;;;;;;;;;6240648;22;20023;-91
2022/10/06 10:33:07;;;;;;;0.30;0.30;;;;;;;;;;6242440;22;20026;-92
2022/10/06 10:35:36;;;;;;;0.10;0.10;;;;;;;;;;6160862;22;20050;-90
2022/10/06 10:38:17;;;;;;;0.13;0.13;;;;;;;;;;6240636;22;20341;-90
2022/10/06 10:40:43;;;;;;;0.10;0.10;;;;;;;;;;6239541;22;20026;-90
2022/10/06 10:43:12;;;;;;;0.20;0.20;;;;;;;;;;6239870;22;20024;-91
2022/10/06 10:45:54;;;;;;;0.20;0.20;;;;;;;;;;6240173;22;20027;-91
2022/10/06 10:48:29;;;;;;;0.20;0.20;;;;;;;;;;6240487;22;20469;-91
2022/10/06 10:51:20;;;;;;;0.10;0.10;;;;;;;;;;6239390;22;20011;-91
2022/10/06 10:53:52;;;;;;;0.10;0.10;;;;;;;;;;6239974;22;20016;-91
2022/10/06 10:56:20;;;;;;;0.10;0.10;;;;;;;;;;6240487;22;20026;-91
2022/10/06 10:58:58;;;;;;;0.10;0.10;;;;;;;;;;6239390;22;20043;-90
2022/10/06 11:01:43;;;;;;;0.20;0.20;;;;;;;;;;6238962;22;20046;-90
2022/10/06 11:04:10;;;;;;;0.10;0.10;;;;;;;;;;6238827;22;20090;-90
2022/10/06 11:06:51;;;;;;;0.10;0.10;;;;;;;;;;6239860;22;20016;-91
2022/10/06 11:09:22;;;;;;;0.17;0.17;;;;;;;;;;6239235;22;20019;-90
2022/10/06 11:11:56;;;;;;;0.10;0.10;;;;;;;;;;6241405;22;20026;-91
2022/10/06 11:14:28;;;;;;;0.10;0.10;;;;;;;;;;6241436;22;20022;-90
2022/10/06 11:17:01;;;;;;;0.25;0.25;;;;;;;;;;6241236;22;20015;-91
2022/10/06 11:19:27;;;;;;;0.10;0.10;;;;;;;;;;6240887;22;20019;-91
2022/10/06 11:21:58;;;;;;;0.10;0.10;;;;;;;;;;6240686;22;20015;-91
2022/10/06 11:24:53;;;;;;;0.10;0.10;;;;;;;;;;6240395;22;20015;-90
2022/10/06 11:27:19;;;;;;;0.10;0.10;;;;;;;;;;6208864;22;20022;-90
2022/10/06 11:29:48;;;;;;;0.10;0.10;;;;;;;;;;6240899;22;20011;-91
2022/10/06 11:32:23;;;;;;;0.10;0.10;;;;;;;;;;6242153;22;20020;-92
2022/10/06 11:34:49;;;;;;;0.10;0.10;;;;;;;;;;6241054;22;20007;-93
2022/10/06 11:37:33;;;;;;;0.10;0.10;;;;;;;;;;6241651;22;20030;-92
2022/10/06 11:40:05;;;;;;;0.10;0.10;;;;;;;;;;6240640;22;20019;-91
2022/10/06 11:42:41;;;;;;;0.20;0.20;;;;;;;;;;6240490;22;20022;-91
2022/10/06 11:45:15;;;;;;;0.10;0.10;;;;;;;;;;6241987;22;20167;-91
2022/10/06 11:48:02;;;;;;;0.10;0.10;;;;;;;;;;6241597;22;20059;-92
2022/10/06 11:50:33;;;;;;;0.10;0.10;;;;;;;;;;6239098;22;20020;-91
2022/10/06 11:53:00;;;;;;;0.10;0.10;;;;;;;;;;6240382;22;20042;-91
2022/10/06 11:55:28;;;;;;;0.17;0.17;;;;;;;;;;6239383;22;20020;-90
2022/10/06 11:58:06;;;;;;;0.10;0.10;;;;;;;;;;6215470;22;20015;-90
2022/10/06 12:00:32;;;;;;;0.10;0.10;;;;;;;;;;6238833;22;20468;-91
2022/10/06 12:03:18;;;;;;;0.10;0.10;;;;;;;;;;6239849;22;20023;-91
2022/10/06 12:05:44;;;;;;;0.10;0.10;;;;;;;;;;6264325;22;20016;-91
2022/10/06 12:08:15;;;;;;;0.15;0.15;;;;;;;;;;6239002;22;20016;-91
2022/10/06 12:10:49;;;;;;;0.20;0.20;;;;;;;;;;6239553;22;20015;-91
2022/10/06 12:13:15;;;;;;;0.10;0.10;;;;;;;;;;6240185;22;20020;-92
2022/10/06 12:15:49;;;;;;;0.13;0.13;;;;;;;;;;6241116;22;20019;-91
2022/10/06 12:18:21;;;;;;;0.03;0.03;;;;;;;;;;6240454;22;20058;-91
2022/10/06 12:21:07;;;;;;;0.15;0.15;;;;;;;;;;6239662;22;20468;-90
2022/10/06 12:23:33;;;;;;;;;;;;;;;;;;6240616;22;20016;-91
2022/10/06 12:26:02;;;;;;;0.10;0.10;;;;;;;;;;6240821;22;19955;-91
2022/10/06 12:28:37;;;;;;;0.10;0.10;;;;;;;;;;6240561;22;20047;-91
2022/10/06 12:31:04;;;;;;;;;;;;;;;;;;6240428;22;20016;-91
2022/10/06 12:33:37;;;;;;;0.10;0.10;;;;;;;;;;6239888;22;20396;-91
2022/10/06 12:36:24;;;;;;;0.10;0.10;;;;;;;;;;6240450;22;20020;-91
2022/10/06 12:39:05;;;;;;;0.10;0.10;;;;;;;;;;6240686;22;20106;-92
2022/10/06 12:41:50;;;;;;;0.10;0.10;;;;;;;;;;6241371;22;20458;-91
2022/10/06 12:44:24;;;;;;;0.10;0.10;;;;;;;;;;6240645;22;20018;-90
2022/10/06 12:46:51;;;;;;;0.10;0.10;;;;;;;;;;6240578;22;20063;-91
2022/10/06 12:49:25;;;;;;;0.10;0.10;;;;;;;;;;6239366;22;20046;-90
2022/10/06 12:51:52;;;;;;;0.10;0.10;;;;;;;;;;6239223;22;20090;-91
2022/10/06 12:54:19;;;;;;;0.10;0.10;;;;;;;;;;6238832;22;20054;-91
2022/10/06 12:56:57;;;;;;;0.10;0.10;;;;;;;;;;6240529;22;20323;-91
2022/10/06 12:59:23;;;;;;;0.17;0.17;;;;;;;;;;6239171;22;20020;-91
2022/10/06 13:01:51;;;;;;;0.20;0.20;;;;;;;;;;6240978;22;20059;-91
2022/10/06 13:04:34;;;;;;;0.10;0.10;;;;;;;;;;6241499;22;20016;-90
2022/10/06 13:07:22;;;;;;;0.10;0.10;;;;;;;;;;6242414;22;20016;-91
2022/10/06 13:09:50;;;;;;;0.10;0.10;;;;;;;;;;6240843;22;20015;-91
2022/10/06 13:12:36;;;;;;;0.15;0.15;;;;;;;;;;6240491;22;20026;-91
2022/10/06 13:15:26;;;;;;;0.20;0.20;;;;;;;;;;6265500;22;20035;-91
2022/10/06 13:17:52;;;;;;;0.10;0.10;;;;;;;;;;6222522;22;20035;-90
2022/10/06 13:20:31;;;;;;;0.10;0.10;;;;;;;;;;6243756;22;20145;-91
2022/10/06 13:23:16;;;;;;;0.20;0.20;;;;;;;;;;6242034;22;20234;-92
2022/10/06 13:25:47;;;;;;;0.20;0.20;;;;;;;;;;6241660;22;20015;-91
2022/10/06 13:28:20;;;;;;;0.10;0.10;;;;;;;;;;6240217;22;20023;-91
2022/10/06 13:30:50;;;;;;;0.10;0.10;;;;;;;;;;6243138;22;20023;-91
2022/10/06 13:33:16;;;;;;;0.10;0.10;;;;;;;;;;6243505;22;20098;-92
2022/10/06 13:35:42;;;;;;;0.10;0.10;;;;;;;;;;6244252;22;20016;-93
2022/10/06 13:38:09;;;;;;;0.22;0.22;;;;;;;;;;6242846;22;20019;-90
2022/10/06 13:40:35;;;;;;;0.10;0.10;;;;;;;;;;6243600;22;20075;-90
2022/10/06 13:43:02;;;;;;;0.10;0.10;;;;;;;;;;6243037;22;20349;-90
2022/10/06 13:45:28;;;;;;;0.10;0.10;;;;;;;;;;6242693;22;20016;-91
2022/10/06 13:48:15;;;;;;;0.20;0.20;;;;;;;;;;6242152;22;20016;-90
2022/10/06 13:50:45;;;;;;;0.10;0.10;;;;;;;;;;6242242;22;20015;-91
2022/10/06 13:53:22;;;;;;;0.10;0.10;;;;;;;;;;6218026;22;20026;-90
2022/10/06 13:59:27;;;;;;;0.10;0.10;;;;;;;;;;6180852;23;20044;-92
2022/10/06 14:01:54;;;;;;;0.10;0.10;;;;;;;;;;6267946;22;20015;-91
2022/10/06 14:04:21;;;;;;;0.10;0.10;;;;;;;;;;6242186;22;20016;-90
2022/10/06 14:06:50;;;;;;;0.10;0.10;;;;;;;;;;6241544;22;20016;-91
2022/10/06 14:09:19;;;;;;;0.10;0.10;;;;;;;;;;6241890;22;20016;-92
2022/10/06 14:11:46;;;;;;;0.10;0.10;;;;;;;;;;6242145;22;20453;-92
2022/10/06 14:14:14;;;;;;;0.10;0.10;;;;;;;;;;6240948;22;20020;-93
2022/10/06 14:23:37;;;;;;;0.10;0.10;;;;;;;;;;6295544;22;20023;-91
2022/10/06 14:26:07;;;;;;;0.20;0.20;;;;;;;;;;6261776;23;20008;-92
2022/10/06 14:28:33;;;;;;;0.20;0.20;;;;;;;;;;6236478;23;20031;-92
2022/10/06 14:30:59;;;;;;;0.05;0.05;;;;;;;;;;6235827;23;20023;-92
2022/10/06 14:33:25;;;;;;;0.10;0.10;;;;;;;;;;6235660;23;20015;-92
2022/10/06 14:35:52;;;;;;;0.20;0.20;;;;;;;;;;6262082;23;20051;-91
2022/10/06 14:38:18;;;;;;;0.20;0.20;;;;;;;;;;6235489;23;20016;-91
2022/10/06 14:40:45;;;;;;;0.10;0.10;;;;;;;;;;6260912;23;20031;-90
2022/10/06 14:43:11;;;;;;;0.10;0.10;;;;;;;;;;6235704;23;20020;-90
2022/10/06 14:45:41;;;;;;;0.20;0.20;;;;;;;;;;6237186;23;20023;-91
2022/10/06 14:48:08;;;;;;;0.20;0.20;;;;;;;;;;6235903;23;20017;-91
2022/10/06 14:50:34;;;;;;;0.10;0.10;;;;;;;;;;6235373;23;20016;-91
2022/10/06 14:53:00;;;;;;;0.10;0.10;;;;;;;;;;6235930;23;20016;-91
2022/10/06 14:55:29;;;;;;;0.10;0.10;;;;;;;;;;6235346;23;20024;-92
2022/10/06 14:57:58;;;;;;;0.10;0.10;;;;;;;;;;6236113;23;20020;-91
2022/10/06 15:00:27;;;;;;;0.10;0.10;;;;;;;;;;6235152;23;20020;-91
2022/10/06 15:02:55;;;;;;;0.10;0.10;;;;;;;;;;6260919;23;20020;-91
2022/10/06 15:05:21;;;;;;;0.10;0.10;;;;;;;;;;6235853;23;20016;-91
2022/10/06 15:10:32;;;;;;;0.00;0.00;;;;;;;;;;6260788;23;20020;-91
2022/10/06 15:12:58;;;;;;;0.10;0.10;;;;;;;;;;6235574;23;20020;-91
2022/10/06 15:15:24;;;;;;;0.10;0.10;;;;;;;;;;6235863;23;20026;-91
2022/10/06 15:17:51;;;;;;;0.20;0.20;;;;;;;;;;6235598;23;20035;-91
2022/10/06 15:20:17;;;;;;;0.03;0.03;;;;;;;;;;6235560;23;20080;-91
2022/10/06 15:22:44;;;;;;;0.20;0.20;;;;;;;;;;6235257;23;20039;-91
2022/10/06 15:38:13;;;;;;;0.17;0.17;;;;;;;;;;6180128;22;20534;-91
2022/10/06 15:40:39;;;;;;;0.13;0.13;;;;;;;;;;6240422;22;20027;-91
2022/10/06 15:43:05;;;;;;;0.10;0.10;;;;;;;;;;6241046;22;20016;-92
2022/10/06 15:45:31;;;;;;;0.10;0.10;;;;;;;;;;6241443;22;20023;-91
2022/10/06 15:47:57;;;;;;;0.20;0.20;;;;;;;;;;6241836;22;20015;-90
2022/10/06 15:50:23;;;;;;;0.10;0.10;;;;;;;;;;6241596;22;20015;-90
2022/10/06 15:52:50;;;;;;;0.10;0.10;;;;;;;;;;6241218;22;20023;-90
2022/10/06 15:55:17;;;;;;;0.10;0.10;;;;;;;;;;6241187;22;20027;-90
2022/10/06 15:57:44;;;;;;;0.10;0.10;;;;;;;;;;6241372;22;20026;-90
2022/10/06 16:00:10;;;;;;;0.20;0.20;;;;;;;;;;6241253;22;20044;-90
2022/10/06 16:02:36;;;;;;;0.20;0.20;;;;;;;;;;6241668;22;20016;-91
2022/10/06 16:05:42;;;;;;;0.00;0.00;;;;;;;;;;6241370;22;20355;-90
2022/10/06 16:07:48;;;;;;;0.10;0.10;;;;;;;;;;6266964;22;20020;-91
2022/10/06 16:10:14;;;;;;;0.10;0.10;;;;;;;;;;6240739;22;20012;-92
2022/10/06 16:12:41;;;;;;;0.30;0.30;;;;;;;;;;6241428;22;20026;-92
2022/10/06 16:15:07;;;;;;;0.20;0.20;;;;;;;;;;6241628;22;20027;-91
2022/10/06 16:17:33;;;;;;;0.20;0.20;;;;;;;;;;6241337;22;20019;-92
2022/10/06 16:19:59;;;;;;;0.10;0.10;;;;;;;;;;6265375;22;20019;-91
2022/10/06 16:22:25;;;;;;;0.20;0.20;;;;;;;;;;6240168;22;20131;-91
2022/10/06 16:24:56;;;;;;;0.10;0.10;;;;;;;;;;6240302;22;20063;-91
2022/10/06 16:27:22;;;;;;;0.10;0.10;;;;;;;;;;6242169;22;20430;-92
2022/10/06 16:29:48;;;;;;;0.10;0.10;;;;;;;;;;6266165;22;20047;-91
2022/10/06 16:32:19;;;;;;;0.10;0.10;;;;;;;;;;6241621;22;20022;-91
2022/10/06 16:34:49;;;;;;;0.20;0.20;;;;;;;;;;6239994;22;20031;-92
2022/10/06 16:37:15;;;;;;;0.10;0.10;;;;;;;;;;6240283;22;20413;-92
2022/10/06 16:39:41;;;;;;;0.10;0.10;;;;;;;;;;6240442;22;20019;-91
2022/10/06 16:42:07;;;;;;;0.15;0.15;;;;;;;;;;6240758;22;20496;-92
2022/10/06 16:44:33;;;;;;;0.17;0.17;;;;;;;;;;6239929;22;20016;-92
2022/10/06 16:46:59;;;;;;;0.10;0.10;;;;;;;;;;6240122;22;20318;-91
2022/10/06 16:57:12;;;;;;;0.20;0.20;;;;;;;;;;6271014;22;20020;-90
2022/10/06 16:59:38;;;;;;;0.28;0.28;;;;;;;;;;6231960;23;20016;-90
2022/10/06 17:02:04;;;;;;;0.10;0.10;;;;;;;;;;6232703;23;20012;-90
2022/10/06 17:04:30;;;;;;;0.10;0.10;;;;;;;;;;6234017;23;20069;-90
2022/10/06 17:06:56;;;;;;;0.10;0.10;;;;;;;;;;6234023;23;20016;-90
2022/10/06 17:09:24;;;;;;;0.10;0.10;;;;;;;;;;6233566;23;20016;-90
2022/10/06 17:11:51;;;;;;;0.20;0.20;;;;;;;;;;6235062;23;20031;-90
2022/10/06 17:14:18;;;;;;;0.20;0.20;;;;;;;;;;6235323;23;20092;-90
2022/10/06 17:16:45;;;;;;;0.10;0.10;;;;;;;;;;6234645;23;20386;-90
2022/10/06 17:19:12;;;;;;;0.20;0.20;;;;;;;;;;6234423;23;20020;-90
2022/10/06 17:21:38;;;;;;;0.20;0.20;;;;;;;;;;6235229;23;20020;-90
2022/10/06 17:24:16;;;;;;;0.30;0.30;;;;;;;;;;6240956;22;20004;-92
2022/10/06 18:06:02;;;;;;;0.25;0.25;;;;;;;;;;6275103;22;20020;-92
2022/10/06 18:08:30;;;;;;;0.17;0.17;;;;;;;;;;6216462;23;20016;-92
2022/10/06 18:13:51;;;;;;;0.10;0.10;;;;;;;;;;6266702;23;20080;-92
2022/10/06 18:59:07;;;;;;;0.10;0.10;;;;;;;;;;6265339;22;20035;-95
2022/10/06 19:04:13;;;;;;;0.20;0.20;;;;;;;;;;6239375;22;20233;-89
2022/10/06 19:07:22;;;;;;;0.20;0.20;;;;;;;;;;6268319;23;20031;-90
2022/10/06 19:09:50;;;;;;;0.20;0.20;;;;;;;;;;6241725;23;20072;-89
2022/10/06 19:12:16;;;;;;;0.05;0.05;;;;;;;;;;6241971;23;20030;-90
2022/10/06 19:18:00;;;;;;;0.10;0.10;;;;;;;;;;6269795;23;20031;-89
2022/10/06 19:20:51;;;;;;;0.10;0.10;;;;;;;;;;6269934;22;20016;-89
2022/10/06 19:23:23;;;;;;;0.10;0.10;;;;;;;;;;6267261;23;20016;-89
2022/10/06 19:26:09;;;;;;;0.20;0.20;;;;;;;;;;6218969;23;20042;-89
2022/10/06 19:29:09;;;;;;;0.20;0.20;;;;;;;;;;6267541;23;20071;-89
2022/10/06 19:31:42;;;;;;;0.20;0.20;;;;;;;;;;6242510;23;20039;-90
2022/10/06 19:37:20;;;;;;;0.20;0.20;;;;;;;;;;6187174;23;20012;-89
2022/10/06 19:39:48;;;;;;;0.20;0.20;;;;;;;;;;6216424;23;20016;-90
2022/10/06 19:45:12;;;;;;;0.15;0.15;;;;;;;;;;6246531;23;20027;-90
2022/10/06 19:48:03;;;;;;;0.30;0.30;;;;;;;;;;6249053;23;20174;-90
2022/10/06 19:50:29;;;;;;;0.20;0.20;;;;;;;;;;6221004;23;20103;-89
2022/10/06 19:53:03;;;;;;;0.30;0.30;;;;;;;;;;6245065;23;20000;-90
2022/10/06 19:56:04;;;;;;;0.20;0.20;;;;;;;;;;6268045;23;20028;-90
2022/10/06 19:58:32;;;;;;;0.30;0.30;;;;;;;;;;6239694;23;20042;-89
2022/10/06 20:01:04;;;;;;;0.20;0.20;;;;;;;;;;6246259;22;20024;-89
2022/10/06 20:03:46;;;;;;;0.25;0.25;;;;;;;;;;6272845;22;20012;-89
2022/10/06 20:06:40;;;;;;;0.30;0.30;;;;;;;;;;6247718;22;20007;-89
2022/10/06 20:09:32;;;;;;;0.20;0.20;;;;;;;;;;6278628;22;20041;-90
2022/10/06 20:12:14;;;;;;;0.20;0.20;;;;;;;;;;6251813;22;20024;-89
2022/10/06 20:17:52;;;;;;;0.20;0.20;;;;;;;;;;6256028;22;20024;-89
2022/10/06 20:23:26;;;;;;;0.20;0.20;;;;;;;;;;6281634;22;20019;-90
2022/10/06 20:26:13;;;;;;;0.20;0.20;;;;;;;;;;6271519;22;20037;-89
2022/10/06 20:31:35;;;;;;;0.20;0.20;;;;;;;;;;6261947;22;20048;-89
2022/10/06 22:15:56;;;;;;;0.30;0.30;;;;;;;;;;6284964;22;20051;-92
2022/10/06 23:20:13;;;;;;;0.30;0.30;;;;;;;;;;6294309;22;20031;-91
2022/10/06 23:22:44;;;;;;;0.20;0.20;;;;;;;;;;6263101;23;20019;-92
2022/10/06 23:25:13;;;;;;;0.30;0.30;;;;;;;;;;6264120;23;20046;-93
